Terminal Aerodrome Forecast
Issued by NWS

Home | Current Version | Previous Version | Text Only | Print | Product List | Glossary On
Versions: 1 2 3 4 5 6 7 8 9 10 11 12 13 14 15 16 17 18 19 20
443
FTUS43 KPAH 211444 AAA
TAFCGI
TAF AMD
KCGI 211444Z 2115/2212 19012G22KT 6SM -DZ BR OVC005
     FM212200 17012KT P6SM SCT005 OVC008
     FM220600 17019G26KT 6SM BR VCSH BKN030
      TEMPO 2209/2212 2SM SHRA=

USA.gov is the U.S. government's official web portal to all federal, state and local government web resources and services.